Time;durP1;ratioP1;P1;durP2;ratioP2;P2;SDS_P1;SDS_P2;PMS_P1;PMS_P2;Temp;Humidity;BMP_temperature;BMP_pressure;BME280_temperature;BME280_humidity;BME280_pressure;Samples;Min_cycle;Max_cycle;Signal;HPM_P1;HPM_P2
2022/03/02 00:01:25;;;;;;;21.27;14.90;;;2.70;79.30;;;;;;5112772;28;20209;-66
2022/03/02 00:03:53;;;;;;;20.10;14.10;;;2.60;79.20;;;;;;5112674;28;20291;-66
2022/03/02 00:06:19;;;;;;;20.15;14.27;;;2.60;79.70;;;;;;5112604;28;20312;-66
2022/03/02 00:08:46;;;;;;;16.98;13.25;;;2.60;80.20;;;;;;5112403;28;20307;-65
2022/03/02 00:11:16;;;;;;;18.30;12.75;;;2.50;80.40;;;;;;5112161;28;20217;-66
2022/03/02 00:13:44;;;;;;;17.73;13.88;;;2.40;80.40;;;;;;5112543;28;20296;-65
2022/03/02 00:16:11;;;;;;;19.58;14.73;;;2.50;81.00;;;;;;5112873;28;20201;-66
2022/03/02 00:18:38;;;;;;;20.42;14.75;;;2.50;81.40;;;;;;5112492;28;20244;-66
2022/03/02 00:21:05;;;;;;;22.98;15.45;;;2.60;81.80;;;;;;5112408;28;20496;-65
2022/03/02 00:23:31;;;;;;;21.95;14.55;;;2.50;82.50;;;;;;5112242;28;20299;-66
2022/03/02 00:25:58;;;;;;;21.58;15.30;;;2.30;83.20;;;;;;5111863;28;20232;-66
2022/03/02 00:28:27;;;;;;;23.02;14.43;;;2.40;83.70;;;;;;5112544;28;20726;-65
2022/03/02 00:30:53;;;;;;;20.48;14.90;;;2.40;83.50;;;;;;5112040;28;20236;-65
2022/03/02 00:33:20;;;;;;;21.77;15.48;;;2.50;82.10;;;;;;5112020;28;20671;-65
2022/03/02 00:35:47;;;;;;;23.10;14.88;;;2.40;81.50;;;;;;5112464;28;20202;-65
2022/03/02 00:38:14;;;;;;;21.05;15.43;;;2.30;81.70;;;;;;5116075;28;20592;-65
2022/03/02 00:40:42;;;;;;;22.25;15.65;;;2.30;81.80;;;;;;5115902;28;20296;-65
2022/03/02 00:43:10;;;;;;;20.80;15.60;;;2.40;83.20;;;;;;5116082;28;20205;-66
2022/03/02 00:45:39;;;;;;;21.42;15.75;;;2.50;83.00;;;;;;5116077;28;20204;-65
2022/03/02 00:48:07;;;;;;;20.00;14.95;;;2.70;83.10;;;;;;5115701;28;20308;-64
2022/03/02 00:50:35;;;;;;;21.42;15.73;;;2.70;81.80;;;;;;5116141;28;20580;-66
2022/03/02 00:53:05;;;;;;;24.92;17.15;;;2.80;81.80;;;;;;5116144;28;20212;-65
2022/03/02 00:55:33;;;;;;;22.17;15.57;;;2.80;81.90;;;;;;5115930;28;20672;-65
2022/03/02 00:58:00;;;;;;;21.05;15.15;;;2.90;82.60;;;;;;5116173;28;20221;-65
2022/03/02 01:00:27;;;;;;;23.08;16.83;;;2.70;82.20;;;;;;5116108;28;20201;-66
2022/03/02 01:02:55;;;;;;;21.98;15.20;;;2.70;82.30;;;;;;5115803;28;20202;-65
2022/03/02 01:05:22;;;;;;;22.70;15.45;;;2.80;82.90;;;;;;5115351;28;20594;-65
2022/03/02 01:07:50;;;;;;;20.40;15.45;;;2.90;83.00;;;;;;5129988;27;20228;-66
2022/03/02 01:10:17;;;;;;;21.35;14.30;;;2.90;82.30;;;;;;5137214;27;20223;-66
2022/03/02 01:12:44;;;;;;;22.90;14.60;;;3.00;81.80;;;;;;5137518;27;20200;-66
2022/03/02 01:15:14;;;;;;;22.60;15.60;;;3.00;81.70;;;;;;5137406;27;20211;-66
2022/03/02 01:17:42;;;;;;;22.10;15.77;;;3.00;81.60;;;;;;5137077;27;20227;-66
2022/03/02 01:20:12;;;;;;;21.60;15.57;;;3.00;81.60;;;;;;5137126;27;20228;-66
2022/03/02 01:22:40;;;;;;;21.90;14.88;;;3.00;82.30;;;;;;5137336;27;20219;-66
2022/03/02 01:25:08;;;;;;;28.27;15.38;;;3.00;81.90;;;;;;5137318;27;20201;-66
2022/03/02 01:27:35;;;;;;;21.00;15.07;;;3.00;82.30;;;;;;5136927;27;20238;-66
2022/03/02 01:30:02;;;;;;;22.50;15.35;;;2.90;81.60;;;;;;5136705;27;20670;-66
2022/03/02 01:32:29;;;;;;;21.15;15.00;;;3.00;81.80;;;;;;5137075;27;20197;-66
2022/03/02 01:34:56;;;;;;;21.80;15.48;;;3.00;80.90;;;;;;5136790;27;20196;-66
2022/03/02 01:37:24;;;;;;;21.80;15.80;;;3.10;80.50;;;;;;5137036;27;20287;-67
2022/03/02 01:39:51;;;;;;;22.48;15.05;;;3.00;79.70;;;;;;5137006;27;20295;-66
2022/03/02 01:42:18;;;;;;;22.58;15.88;;;2.90;81.20;;;;;;5136932;27;20197;-66
2022/03/02 01:44:44;;;;;;;19.83;14.50;;;2.60;81.70;;;;;;5136911;27;20677;-66
2022/03/02 01:47:11;;;;;;;22.02;15.00;;;2.30;81.80;;;;;;5136781;27;20206;-66
2022/03/02 01:49:38;;;;;;;21.70;15.35;;;2.30;83.30;;;;;;5135844;27;20232;-66
2022/03/02 01:52:05;;;;;;;20.13;14.85;;;2.40;83.30;;;;;;5136751;27;20232;-66
2022/03/02 01:54:33;;;;;;;20.92;14.27;;;2.40;83.00;;;;;;5136695;27;20211;-66
2022/03/02 01:57:00;;;;;;;22.73;15.30;;;2.40;82.90;;;;;;5136627;27;20215;-66
2022/03/02 01:59:27;;;;;;;19.90;14.90;;;2.50;82.80;;;;;;5136669;27;20594;-66
2022/03/02 02:01:54;;;;;;;21.20;14.45;;;2.60;81.80;;;;;;5136510;27;20200;-66
2022/03/02 02:04:22;;;;;;;23.08;14.73;;;2.60;81.70;;;;;;5136346;27;20211;-66
2022/03/02 02:06:49;;;;;;;22.30;15.13;;;2.70;82.00;;;;;;5136328;27;20245;-66
2022/03/02 02:09:16;;;;;;;21.30;15.02;;;2.60;82.40;;;;;;5136449;27;20235;-66
2022/03/02 02:11:44;;;;;;;23.00;14.43;;;2.60;82.40;;;;;;5136239;27;20226;-66
2022/03/02 02:14:11;;;;;;;22.45;15.40;;;2.70;82.80;;;;;;5136438;27;20201;-66
2022/03/02 02:16:37;;;;;;;22.15;15.45;;;2.60;82.70;;;;;;5136241;27;20197;-66
2022/03/02 02:19:05;;;;;;;19.95;14.50;;;2.60;82.50;;;;;;5136542;27;20598;-66
2022/03/02 02:21:33;;;;;;;20.40;14.70;;;2.60;81.90;;;;;;5136074;27;20283;-66
2022/03/02 02:24:00;;;;;;;19.20;13.70;;;2.50;82.10;;;;;;5136268;27;20196;-66
2022/03/02 02:26:27;;;;;;;23.83;15.95;;;2.50;82.00;;;;;;5136084;27;20224;-67
2022/03/02 02:28:55;;;;;;;21.58;14.57;;;2.50;81.80;;;;;;5136051;27;20302;-66
2022/03/02 02:31:22;;;;;;;22.52;15.52;;;2.50;82.80;;;;;;5135866;27;20221;-67
2022/03/02 02:33:49;;;;;;;21.77;15.07;;;2.50;83.50;;;;;;5136018;27;20196;-66
2022/03/02 02:36:16;;;;;;;21.42;13.50;;;2.40;83.50;;;;;;5135942;27;20201;-66
2022/03/02 02:38:44;;;;;;;22.00;14.80;;;2.40;83.30;;;;;;5135616;27;20315;-66
2022/03/02 02:41:11;;;;;;;19.98;14.55;;;2.40;83.90;;;;;;5135497;27;20203;-66
2022/03/02 02:43:42;;;;;;;20.85;15.18;;;2.40;83.90;;;;;;5135809;27;20204;-66
2022/03/02 02:46:10;;;;;;;17.50;13.15;;;2.40;84.20;;;;;;5135684;27;20200;-66
2022/03/02 02:48:37;;;;;;;20.17;14.50;;;2.30;84.50;;;;;;5136013;27;20311;-66
2022/03/02 02:51:04;;;;;;;17.48;12.95;;;2.30;84.00;;;;;;5135319;27;20212;-66
2022/03/02 02:53:31;;;;;;;20.42;14.23;;;2.30;83.50;;;;;;5135762;27;20201;-66
2022/03/02 02:55:59;;;;;;;17.60;13.13;;;2.20;83.40;;;;;;5135583;27;20205;-67
2022/03/02 02:58:26;;;;;;;19.88;13.65;;;2.20;82.50;;;;;;5135642;27;20227;-66
2022/03/02 03:00:53;;;;;;;17.92;13.07;;;2.20;83.40;;;;;;5134096;27;20201;-66
2022/03/02 03:03:20;;;;;;;20.42;13.68;;;2.20;84.30;;;;;;5135358;27;20277;-66
2022/03/02 03:05:47;;;;;;;18.92;13.85;;;2.20;84.70;;;;;;5135393;27;20627;-66
2022/03/02 03:08:15;;;;;;;18.67;13.70;;;2.20;85.10;;;;;;5135126;27;20263;-66
2022/03/02 03:10:45;;;;;;;19.42;13.95;;;2.20;85.40;;;;;;5134982;27;20570;-66
2022/03/02 03:13:14;;;;;;;18.73;13.55;;;2.10;85.40;;;;;;5135321;27;20207;-66
2022/03/02 03:15:41;;;;;;;25.27;14.45;;;2.00;86.00;;;;;;5135164;27;20603;-66
2022/03/02 03:18:08;;;;;;;23.40;14.45;;;2.00;85.10;;;;;;5134927;27;20216;-66
2022/03/02 03:20:35;;;;;;;17.80;13.45;;;2.00;85.10;;;;;;5134790;27;20197;-66
2022/03/02 03:23:03;;;;;;;20.23;14.25;;;2.00;85.30;;;;;;5134956;27;20214;-66
2022/03/02 03:25:30;;;;;;;19.73;13.48;;;2.00;86.10;;;;;;5135110;27;20197;-66
2022/03/02 03:27:57;;;;;;;22.42;15.68;;;1.90;86.00;;;;;;5134571;27;20233;-66
2022/03/02 03:30:26;;;;;;;21.98;14.63;;;1.60;87.30;;;;;;5134912;27;20582;-66
2022/03/02 03:32:54;;;;;;;22.67;14.13;;;1.60;87.90;;;;;;5134984;27;20209;-66
2022/03/02 03:35:23;;;;;;;22.92;15.80;;;1.50;88.50;;;;;;5134934;27;20201;-66
2022/03/02 03:37:49;;;;;;;20.67;15.48;;;1.50;88.40;;;;;;5134647;27;20221;-66
2022/03/02 03:40:19;;;;;;;19.95;13.70;;;1.40;89.60;;;;;;5134696;27;20200;-66
2022/03/02 03:42:46;;;;;;;20.67;13.65;;;1.40;89.70;;;;;;5134847;27;20197;-66
2022/03/02 03:45:14;;;;;;;19.40;13.48;;;1.40;88.90;;;;;;5134986;27;20213;-66
2022/03/02 03:47:43;;;;;;;18.58;13.65;;;1.50;89.30;;;;;;5134773;27;20223;-66
2022/03/02 03:50:11;;;;;;;30.48;15.05;;;1.50;90.00;;;;;;5134409;28;20295;-66
2022/03/02 03:52:38;;;;;;;20.83;14.35;;;1.40;90.00;;;;;;5134830;28;20585;-66
2022/03/02 03:55:09;;;;;;;19.33;14.10;;;1.40;90.10;;;;;;5134843;28;20207;-66
2022/03/02 03:57:36;;;;;;;18.63;13.70;;;1.50;90.30;;;;;;5134724;28;20216;-66
2022/03/02 04:00:06;;;;;;;23.10;15.45;;;1.60;90.20;;;;;;5134779;28;20204;-66
2022/03/02 04:02:33;;;;;;;22.05;14.85;;;1.60;90.10;;;;;;5134767;28;20215;-66
2022/03/02 04:05:01;;;;;;;23.20;14.30;;;1.40;90.60;;;;;;5134921;28;20203;-66
2022/03/02 04:07:29;;;;;;;20.13;13.75;;;1.20;90.40;;;;;;5134629;28;20222;-66
2022/03/02 04:09:56;;;;;;;20.90;14.85;;;1.30;90.40;;;;;;5134351;28;20251;-66
2022/03/02 04:12:23;;;;;;;20.40;14.23;;;1.20;90.20;;;;;;5137412;27;20235;-66
2022/03/02 04:14:49;;;;;;;22.63;15.23;;;1.30;90.30;;;;;;5138858;27;20203;-66
2022/03/02 04:17:16;;;;;;;21.92;14.77;;;1.40;90.40;;;;;;5138558;27;20201;-66
2022/03/02 04:19:43;;;;;;;22.67;14.50;;;1.40;90.40;;;;;;5138189;27;20243;-66
2022/03/02 04:22:11;;;;;;;23.70;14.43;;;1.50;90.40;;;;;;5138321;27;20239;-66
2022/03/02 04:24:38;;;;;;;19.95;13.98;;;1.60;90.30;;;;;;5138323;27;20291;-66
2022/03/02 04:27:06;;;;;;;20.77;14.10;;;1.60;90.60;;;;;;5138156;27;20204;-66
2022/03/02 04:29:33;;;;;;;21.25;14.32;;;1.60;90.00;;;;;;5138221;27;20221;-66
2022/03/02 04:32:00;;;;;;;23.65;14.25;;;1.60;89.70;;;;;;5138172;27;20227;-66
2022/03/02 04:34:27;;;;;;;20.60;14.20;;;1.60;89.90;;;;;;5138663;27;20635;-66
2022/03/02 04:36:54;;;;;;;19.83;14.57;;;1.50;90.00;;;;;;5138322;27;20207;-66
2022/03/02 04:39:22;;;;;;;19.73;14.40;;;1.40;90.00;;;;;;5138207;27;20217;-66
2022/03/02 04:41:49;;;;;;;19.27;14.43;;;1.30;89.70;;;;;;5138369;27;20199;-66
2022/03/02 04:44:16;;;;;;;22.25;14.60;;;1.30;89.60;;;;;;5138257;27;20677;-66
2022/03/02 04:46:48;;;;;;;19.92;14.50;;;1.30;89.90;;;;;;5138011;27;20204;-66
2022/03/02 04:49:18;;;;;;;19.30;14.27;;;1.30;89.80;;;;;;5138278;27;20223;-66
2022/03/02 04:51:45;;;;;;;18.90;13.07;;;1.30;89.50;;;;;;5137955;27;20213;-66
2022/03/02 04:55:05;;;;;;;19.23;13.77;;;1.40;88.60;;;;;;5138206;27;20200;-66
2022/03/02 04:57:01;;;;;;;20.42;13.90;;;1.30;88.40;;;;;;5137725;27;20232;-66
2022/03/02 04:59:28;;;;;;;23.13;14.52;;;1.10;89.30;;;;;;5137788;27;20303;-66
2022/03/02 05:01:55;;;;;;;22.38;14.57;;;1.20;89.50;;;;;;5137959;27;20193;-66
2022/03/02 05:04:22;;;;;;;20.65;14.55;;;1.20;89.00;;;;;;5138106;27;20196;-66
2022/03/02 05:06:49;;;;;;;21.45;14.38;;;1.20;89.20;;;;;;5138218;27;20560;-66
2022/03/02 05:09:16;;;;;;;20.50;14.57;;;1.20;89.40;;;;;;5137770;27;20656;-66
2022/03/02 05:11:43;;;;;;;23.90;14.52;;;1.20;89.80;;;;;;5137596;27;20220;-66
2022/03/02 05:14:11;;;;;;;21.05;15.80;;;1.20;90.50;;;;;;5137390;27;20677;-66
2022/03/02 05:16:38;;;;;;;23.42;15.73;;;1.10;90.90;;;;;;5137745;27;20200;-66
2022/03/02 05:19:05;;;;;;;23.05;15.02;;;1.10;91.00;;;;;;5137276;27;20312;-66
2022/03/02 05:21:32;;;;;;;20.20;14.75;;;1.20;90.60;;;;;;5137060;27;20203;-66
2022/03/02 05:23:59;;;;;;;20.55;15.40;;;1.20;90.70;;;;;;5136084;27;20802;-66
2022/03/02 05:26:25;;;;;;;21.23;15.35;;;1.30;90.60;;;;;;5137199;27;20205;-66
2022/03/02 05:28:52;;;;;;;25.30;16.63;;;1.00;91.40;;;;;;5137604;27;20221;-65
2022/03/02 05:31:23;;;;;;;23.25;16.13;;;0.70;91.70;;;;;;5137043;27;20295;-66
2022/03/02 05:33:51;;;;;;;21.23;15.65;;;0.80;91.90;;;;;;5137145;27;20205;-66
2022/03/02 05:36:18;;;;;;;22.70;16.00;;;1.00;91.60;;;;;;5137521;27;20200;-66
2022/03/02 05:38:45;;;;;;;22.27;15.52;;;0.90;91.30;;;;;;5137476;27;20227;-66
2022/03/02 05:41:12;;;;;;;23.42;15.43;;;0.90;91.90;;;;;;5136860;27;20677;-66
2022/03/02 05:43:39;;;;;;;24.58;16.23;;;1.10;91.70;;;;;;5137091;27;20204;-66
2022/03/02 05:46:05;;;;;;;22.40;15.45;;;1.20;91.70;;;;;;5137084;27;20207;-66
2022/03/02 05:48:34;;;;;;;22.17;16.25;;;1.20;91.90;;;;;;5136719;27;20782;-66
2022/03/02 05:51:00;;;;;;;26.30;16.98;;;1.20;91.90;;;;;;5136908;27;20543;-66
2022/03/02 05:53:27;;;;;;;24.05;16.15;;;1.30;91.80;;;;;;5136889;27;20220;-66
2022/03/02 05:55:54;;;;;;;25.77;16.42;;;1.30;92.10;;;;;;5136708;27;20634;-66
2022/03/02 05:58:21;;;;;;;25.23;16.20;;;1.40;92.00;;;;;;5136689;27;20307;-66
2022/03/02 06:00:48;;;;;;;24.08;16.67;;;1.50;91.80;;;;;;5136818;27;20196;-66
2022/03/02 06:03:15;;;;;;;22.60;16.15;;;1.20;92.50;;;;;;5136807;27;20192;-66
2022/03/02 06:05:44;;;;;;;23.52;16.23;;;1.00;92.70;;;;;;5136796;27;20196;-66
2022/03/02 06:08:10;;;;;;;24.88;16.02;;;0.90;93.20;;;;;;5136853;27;20233;-66
2022/03/02 06:10:38;;;;;;;25.10;16.65;;;0.90;93.30;;;;;;5136447;27;20200;-66
2022/03/02 06:13:07;;;;;;;24.70;16.42;;;1.00;93.70;;;;;;5136466;27;20221;-66
2022/03/02 06:15:35;;;;;;;26.90;17.10;;;1.00;93.90;;;;;;5136492;27;20360;-66
2022/03/02 06:18:03;;;;;;;22.75;15.82;;;1.00;93.60;;;;;;5136176;27;20225;-66
2022/03/02 06:20:30;;;;;;;23.67;16.00;;;1.20;93.60;;;;;;5136161;27;20232;-66
2022/03/02 06:22:59;;;;;;;25.23;16.58;;;1.40;93.70;;;;;;5136275;27;20532;-66
2022/03/02 06:25:27;;;;;;;24.38;17.13;;;1.50;92.80;;;;;;5136115;27;20205;-66
2022/03/02 06:27:54;;;;;;;23.92;16.50;;;1.70;92.70;;;;;;5135840;27;20243;-66
2022/03/02 06:30:21;;;;;;;23.05;16.50;;;1.80;93.00;;;;;;5135976;27;20308;-66
2022/03/02 06:32:48;;;;;;;25.83;16.80;;;1.80;92.70;;;;;;5136002;27;20220;-66
2022/03/02 06:35:15;;;;;;;24.50;16.63;;;1.90;92.80;;;;;;5135752;27;20254;-66
2022/03/02 06:37:42;;;;;;;24.67;17.63;;;1.90;92.80;;;;;;5135833;27;20703;-67
2022/03/02 06:40:13;;;;;;;27.90;18.25;;;1.80;93.50;;;;;;5135936;27;20223;-66
2022/03/02 06:42:59;;;;;;;26.70;17.67;;;1.60;93.20;;;;;;5136173;27;20766;-66
2022/03/02 06:45:30;;;;;;;26.25;17.98;;;1.30;93.60;;;;;;5133428;27;20631;-66
2022/03/02 06:48:03;;;;;;;26.65;17.95;;;1.20;93.90;;;;;;5135856;27;20234;-66
2022/03/02 06:50:32;;;;;;;25.35;17.02;;;1.20;94.50;;;;;;5135452;27;20181;-66
2022/03/02 06:53:03;;;;;;;26.17;16.63;;;1.20;94.40;;;;;;5135659;27;20220;-66
2022/03/02 06:55:31;;;;;;;25.90;17.25;;;1.50;94.20;;;;;;5135645;27;20553;-66
2022/03/02 06:58:00;;;;;;;22.83;17.42;;;1.60;94.20;;;;;;5135603;27;20224;-66
2022/03/02 07:00:28;;;;;;;32.97;19.25;;;1.70;94.30;;;;;;5135229;27;20200;-66
2022/03/02 07:03:02;;;;;;;30.90;18.85;;;1.80;94.60;;;;;;5135343;27;20197;-66
2022/03/02 07:05:30;;;;;;;26.17;17.83;;;1.80;94.60;;;;;;5135406;27;20672;-66
2022/03/02 07:07:59;;;;;;;25.05;18.10;;;2.00;94.30;;;;;;5135303;27;20220;-66
2022/03/02 07:10:26;;;;;;;29.20;18.52;;;2.20;93.90;;;;;;5134901;27;20291;-66
2022/03/02 07:12:55;;;;;;;26.02;18.58;;;2.20;94.20;;;;;;5135163;27;20581;-66
2022/03/02 07:15:22;;;;;;;27.20;18.15;;;2.40;93.90;;;;;;5135272;27;20207;-66
2022/03/02 07:17:49;;;;;;;27.05;19.13;;;2.40;93.50;;;;;;5135135;27;20225;-67
2022/03/02 07:20:16;;;;;;;28.20;19.02;;;2.40;93.10;;;;;;5134942;27;20613;-66
2022/03/02 07:22:44;;;;;;;27.23;19.23;;;2.40;92.60;;;;;;5135152;27;20196;-66
2022/03/02 07:25:17;;;;;;;27.30;18.80;;;2.40;91.80;;;;;;5135042;27;20561;-67
2022/03/02 07:27:45;;;;;;;26.70;17.50;;;2.30;92.00;;;;;;5134773;27;20239;-66
2022/03/02 07:30:13;;;;;;;27.92;18.80;;;2.30;91.60;;;;;;5134526;27;20201;-66
2022/03/02 07:32:45;;;;;;;31.23;19.23;;;2.20;91.40;;;;;;5134702;27;20213;-66
2022/03/02 07:35:15;;;;;;;28.92;18.23;;;2.20;91.80;;;;;;5134913;27;20200;-66
2022/03/02 07:37:43;;;;;;;30.40;18.60;;;2.30;92.50;;;;;;5134758;27;20315;-66
2022/03/02 07:40:11;;;;;;;24.73;17.98;;;2.40;92.20;;;;;;5134852;27;20566;-66
2022/03/02 07:42:39;;;;;;;31.20;19.02;;;2.40;91.90;;;;;;5135019;27;20201;-66
2022/03/02 07:45:07;;;;;;;30.48;18.63;;;2.50;92.10;;;;;;5134717;27;20311;-66
2022/03/02 07:47:36;;;;;;;27.88;19.65;;;2.60;91.80;;;;;;5134572;27;20283;-66
2022/03/02 07:50:03;;;;;;;27.42;18.63;;;2.70;92.00;;;;;;5134517;27;20200;-67
2022/03/02 07:52:31;;;;;;;25.15;17.75;;;2.80;91.80;;;;;;5134984;27;20311;-66
2022/03/02 07:55:06;;;;;;;27.55;19.67;;;2.80;91.50;;;;;;5134798;28;20676;-66
2022/03/02 07:57:34;;;;;;;28.23;19.27;;;2.80;91.10;;;;;;5134789;27;20200;-66
2022/03/02 08:00:03;;;;;;;26.55;19.13;;;2.90;91.00;;;;;;5134446;28;20209;-67
2022/03/02 08:02:32;;;;;;;25.77;19.30;;;3.00;90.90;;;;;;5134602;28;20654;-66
2022/03/02 08:05:03;;;;;;;26.42;19.63;;;3.20;90.60;;;;;;5134490;28;20211;-66
2022/03/02 08:07:30;;;;;;;30.77;20.27;;;3.30;90.70;;;;;;5134712;28;20208;-67
2022/03/02 08:09:58;;;;;;;27.65;18.60;;;3.20;90.20;;;;;;5134317;28;20240;-66
2022/03/02 08:12:26;;;;;;;32.08;20.58;;;3.20;90.50;;;;;;5134315;28;20213;-66
2022/03/02 08:14:53;;;;;;;27.35;20.40;;;3.40;90.60;;;;;;5134557;28;20201;-66
2022/03/02 08:17:21;;;;;;;27.20;19.60;;;3.40;90.90;;;;;;5134190;28;20204;-66
2022/03/02 08:19:48;;;;;;;30.98;20.27;;;3.50;89.60;;;;;;5133994;28;20678;-66
2022/03/02 08:22:19;;;;;;;29.10;20.50;;;3.60;90.00;;;;;;5134199;28;20651;-66
2022/03/02 08:24:51;;;;;;;29.98;19.70;;;3.70;90.10;;;;;;5134559;28;20304;-66
2022/03/02 08:27:18;;;;;;;31.45;19.50;;;3.90;89.50;;;;;;5134374;28;20216;-71
2022/03/02 08:29:51;;;;;;;27.42;20.20;;;4.00;88.40;;;;;;5122386;28;20209;-67
2022/03/02 08:32:18;;;;;;;28.48;20.50;;;3.90;88.20;;;;;;5131795;28;20209;-67
2022/03/02 08:34:47;;;;;;;24.75;18.40;;;4.00;88.80;;;;;;5133334;28;20204;-67
2022/03/02 08:37:17;;;;;;;28.80;20.50;;;4.20;88.20;;;;;;5132956;28;20205;-67
2022/03/02 08:39:44;;;;;;;31.73;21.15;;;4.30;88.40;;;;;;5133531;28;20193;-67
2022/03/02 08:42:12;;;;;;;28.00;20.75;;;4.20;88.00;;;;;;5133665;28;20201;-67
2022/03/02 08:44:40;;;;;;;30.70;20.98;;;4.20;88.10;;;;;;5133098;28;20209;-66
2022/03/02 08:47:07;;;;;;;31.02;19.23;;;4.30;87.60;;;;;;5132962;28;20212;-67
2022/03/02 08:49:34;;;;;;;24.23;18.50;;;4.40;88.30;;;;;;5133021;28;20228;-67
2022/03/02 08:52:02;;;;;;;34.05;21.17;;;4.50;87.60;;;;;;5132993;28;20291;-67
2022/03/02 08:54:35;;;;;;;30.45;20.40;;;4.60;86.70;;;;;;5133559;28;20229;-67
2022/03/02 08:57:03;;;;;;;27.45;21.42;;;4.60;85.90;;;;;;5134381;27;20236;-68
2022/03/02 08:59:32;;;;;;;28.33;19.63;;;4.50;86.60;;;;;;5137917;27;20593;-67
2022/03/02 09:02:01;;;;;;;30.63;21.15;;;4.60;86.50;;;;;;5137605;27;20203;-67
2022/03/02 09:04:32;;;;;;;27.52;20.45;;;4.80;85.80;;;;;;5137697;27;20204;-67
2022/03/02 09:07:00;;;;;;;31.90;22.25;;;4.90;83.70;;;;;;5137727;27;20205;-67
2022/03/02 09:09:27;;;;;;;30.88;21.30;;;5.00;84.00;;;;;;5137699;27;20228;-67
2022/03/02 09:11:56;;;;;;;27.17;19.45;;;5.20;83.00;;;;;;5137732;27;20627;-67
2022/03/02 09:14:23;;;;;;;30.92;20.92;;;5.30;82.10;;;;;;5137507;27;20216;-67
2022/03/02 09:16:50;;;;;;;27.95;20.13;;;5.60;82.50;;;;;;5137756;27;20222;-67
2022/03/02 09:19:17;;;;;;;31.83;23.27;;;5.70;81.40;;;;;;5137774;27;20657;-67
2022/03/02 09:21:45;;;;;;;32.83;20.65;;;5.80;80.70;;;;;;5137689;27;20201;-67
2022/03/02 09:24:13;;;;;;;27.55;20.30;;;6.10;82.50;;;;;;5137619;27;20603;-67
2022/03/02 09:26:40;;;;;;;29.42;20.20;;;6.40;85.00;;;;;;5137079;27;20215;-67
2022/03/02 09:29:09;;;;;;;25.13;17.48;;;6.70;81.70;;;;;;5137343;27;20220;-67
2022/03/02 09:31:37;;;;;;;23.90;17.38;;;6.70;75.60;;;;;;5137190;27;20201;-67
2022/03/02 09:34:08;;;;;;;27.88;17.77;;;6.80;73.10;;;;;;5137533;27;20273;-67
2022/03/02 09:36:36;;;;;;;21.63;16.80;;;6.80;71.00;;;;;;5137849;27;20191;-67
2022/03/02 09:39:05;;;;;;;22.25;16.55;;;6.80;70.50;;;;;;5137502;27;20312;-67
2022/03/02 09:41:43;;;;;;;22.95;17.00;;;6.70;70.80;;;;;;5136886;27;20197;-67
2022/03/02 09:44:13;;;;;;;25.60;16.17;;;6.80;70.20;;;;;;5137034;27;20284;-67
2022/03/02 09:46:41;;;;;;;23.60;18.35;;;6.80;69.60;;;;;;5136981;27;20204;-67
2022/03/02 09:49:09;;;;;;;25.63;18.40;;;6.80;69.80;;;;;;5137178;27;20273;-67
2022/03/02 09:51:38;;;;;;;22.27;17.77;;;6.60;70.30;;;;;;5137279;27;20286;-67
2022/03/02 09:54:06;;;;;;;23.10;18.65;;;6.60;71.00;;;;;;5137067;27;20216;-67
2022/03/02 09:56:35;;;;;;;24.30;18.42;;;6.60;71.30;;;;;;5136761;27;20201;-67
2022/03/02 09:59:05;;;;;;;24.92;18.58;;;6.80;72.00;;;;;;5136532;27;20282;-67
2022/03/02 10:01:35;;;;;;;22.08;18.20;;;6.90;71.70;;;;;;5136492;27;20212;-67
2022/03/02 10:04:13;;;;;;;25.90;18.85;;;7.00;72.20;;;;;;5137211;27;20524;-67
2022/03/02 10:06:43;;;;;;;23.77;17.70;;;7.20;71.10;;;;;;5136582;27;20200;-68
2022/03/02 10:09:12;;;;;;;27.48;19.20;;;7.30;69.80;;;;;;5135774;27;20232;-67
2022/03/02 10:11:42;;;;;;;22.05;18.02;;;7.40;69.30;;;;;;5136292;27;20228;-67
2022/03/02 10:14:09;;;;;;;28.80;19.35;;;7.60;69.10;;;;;;5136358;27;20205;-67
2022/03/02 10:16:44;;;;;;;27.90;18.30;;;7.80;68.50;;;;;;5136212;27;20204;-67
2022/03/02 10:19:21;;;;;;;26.58;19.50;;;7.90;67.80;;;;;;5136228;27;20216;-67
2022/03/02 10:22:01;;;;;;;24.48;18.52;;;8.10;67.50;;;;;;5136045;27;20271;-67
2022/03/02 10:24:32;;;;;;;22.80;18.23;;;8.30;67.10;;;;;;5136117;27;20207;-67
2022/03/02 10:27:06;;;;;;;26.10;18.67;;;8.50;65.70;;;;;;5135665;27;20212;-67
2022/03/02 10:29:41;;;;;;;25.48;18.10;;;8.90;64.50;;;;;;5136168;27;20615;-68
2022/03/02 10:32:15;;;;;;;26.70;19.33;;;9.10;62.90;;;;;;5136027;27;20254;-68
2022/03/02 10:34:48;;;;;;;26.17;18.67;;;8.90;62.70;;;;;;5135998;27;20235;-67
2022/03/02 10:37:29;;;;;;;24.65;18.35;;;8.70;62.80;;;;;;5135899;27;20200;-67
2022/03/02 10:40:05;;;;;;;24.65;19.95;;;8.60;63.10;;;;;;5135829;27;20287;-67
2022/03/02 10:42:35;;;;;;;23.63;18.15;;;8.30;63.30;;;;;;5135844;27;20587;-67
2022/03/02 10:45:08;;;;;;;25.42;18.95;;;8.10;63.90;;;;;;5135877;27;20197;-67
2022/03/02 10:47:43;;;;;;;24.90;18.67;;;7.90;65.20;;;;;;5135760;27;20192;-67
2022/03/02 10:50:10;;;;;;;27.00;20.33;;;8.00;65.40;;;;;;5135406;27;20185;-67
2022/03/02 10:52:39;;;;;;;29.27;17.88;;;8.10;65.30;;;;;;5135703;27;20200;-67
2022/03/02 10:55:08;;;;;;;24.17;19.55;;;8.40;66.10;;;;;;5135489;27;20221;-67
2022/03/02 10:57:36;;;;;;;26.17;18.48;;;8.50;64.60;;;;;;5135634;27;20201;-67
2022/03/02 11:00:09;;;;;;;25.30;18.65;;;8.60;64.20;;;;;;5135449;27;20204;-67
2022/03/02 11:02:41;;;;;;;24.45;17.73;;;8.60;63.60;;;;;;5135622;27;20565;-67
2022/03/02 11:05:10;;;;;;;24.17;19.25;;;8.60;63.20;;;;;;5135583;27;20189;-67
2022/03/02 11:07:38;;;;;;;22.98;18.90;;;8.50;63.40;;;;;;5135572;27;20211;-67
2022/03/02 11:10:07;;;;;;;26.88;19.58;;;8.40;63.40;;;;;;5135182;27;20200;-67
2022/03/02 11:12:34;;;;;;;23.23;19.25;;;8.30;63.40;;;;;;5134959;27;20211;-67
2022/03/02 11:15:04;;;;;;;26.25;18.90;;;8.20;63.90;;;;;;5135220;27;20223;-68
2022/03/02 11:17:31;;;;;;;25.08;18.83;;;8.10;64.90;;;;;;5134879;27;20264;-67
2022/03/02 11:20:06;;;;;;;26.65;17.95;;;8.20;64.50;;;;;;5134800;27;20670;-67
2022/03/02 11:22:33;;;;;;;25.65;18.23;;;8.30;64.60;;;;;;5134420;27;20280;-67
2022/03/02 11:25:00;;;;;;;24.25;18.45;;;8.40;64.30;;;;;;5134915;27;20201;-67
2022/03/02 11:27:30;;;;;;;23.02;18.05;;;8.50;64.50;;;;;;5134920;27;20311;-67
2022/03/02 11:30:10;;;;;;;25.98;18.98;;;8.60;64.00;;;;;;5134947;27;20291;-67
2022/03/02 11:32:39;;;;;;;26.85;17.55;;;8.50;63.60;;;;;;5134877;27;20736;-67
2022/03/02 11:35:10;;;;;;;26.13;19.25;;;8.70;64.00;;;;;;5134860;27;20312;-68
2022/03/02 11:37:38;;;;;;;25.58;18.85;;;8.70;63.20;;;;;;5134934;27;20212;-68
2022/03/02 11:40:09;;;;;;;27.23;19.52;;;8.90;63.30;;;;;;5134855;27;20200;-67
2022/03/02 11:42:38;;;;;;;26.45;19.40;;;9.00;61.90;;;;;;5134768;27;20197;-67
2022/03/02 11:45:07;;;;;;;26.05;19.20;;;9.10;61.60;;;;;;5134875;27;20199;-67
2022/03/02 11:47:36;;;;;;;25.20;19.50;;;9.00;61.00;;;;;;5134765;27;20227;-67
2022/03/02 11:50:05;;;;;;;29.42;18.05;;;9.20;61.50;;;;;;5134390;27;20681;-67
2022/03/02 11:52:35;;;;;;;28.05;19.20;;;9.10;60.70;;;;;;5134733;27;20566;-67
2022/03/02 11:55:06;;;;;;;25.10;18.85;;;9.30;61.00;;;;;;5134598;28;20224;-67
2022/03/02 11:57:39;;;;;;;24.17;19.00;;;9.40;61.00;;;;;;5134654;27;20185;-67
2022/03/02 12:00:14;;;;;;;24.42;20.63;;;9.50;60.60;;;;;;5134473;28;20283;-67
2022/03/02 12:02:43;;;;;;;24.98;18.75;;;9.70;60.20;;;;;;5134374;28;20204;-68
2022/03/02 12:05:10;;;;;;;31.15;19.25;;;9.70;59.00;;;;;;5134543;27;20192;-68
2022/03/02 12:07:48;;;;;;;30.50;20.65;;;9.70;57.90;;;;;;5134444;28;20200;-67
2022/03/02 12:10:21;;;;;;;36.20;19.75;;;9.70;59.00;;;;;;5134115;28;20196;-68
2022/03/02 12:12:48;;;;;;;22.90;19.52;;;9.80;59.20;;;;;;5134314;28;20204;-67
2022/03/02 12:15:15;;;;;;;22.00;17.90;;;9.80;58.20;;;;;;5134471;28;20708;-68
2022/03/02 12:17:43;;;;;;;27.42;18.95;;;9.90;57.80;;;;;;5134522;28;20316;-67
2022/03/02 12:20:12;;;;;;;23.05;18.52;;;9.90;57.70;;;;;;5134235;28;20207;-67
2022/03/02 12:22:43;;;;;;;27.08;18.00;;;9.70;56.60;;;;;;5134680;28;20207;-68
2022/03/02 12:25:12;;;;;;;21.58;17.23;;;9.80;57.20;;;;;;5134440;28;20292;-68
2022/03/02 12:27:40;;;;;;;24.73;18.48;;;10.00;56.90;;;;;;5134023;28;20213;-67
2022/03/02 12:30:10;;;;;;;21.23;17.35;;;10.30;56.60;;;;;;5134193;28;20265;-67
2022/03/02 12:32:38;;;;;;;20.70;18.50;;;10.60;55.60;;;;;;5136060;27;20200;-67
2022/03/02 12:35:08;;;;;;;22.75;17.63;;;10.50;54.00;;;;;;5138277;27;20216;-67
2022/03/02 12:37:36;;;;;;;23.77;17.25;;;10.20;55.00;;;;;;5138269;27;20207;-67
2022/03/02 12:40:09;;;;;;;22.80;17.02;;;10.00;55.30;;;;;;5137981;27;20291;-67
2022/03/02 12:42:37;;;;;;;23.25;16.58;;;10.00;55.60;;;;;;5138284;27;20250;-67